createdAt,value
2023-04-11T00:00:40.373Z,33.70
2023-04-11T00:03:10.268Z,32.65
2023-04-11T00:05:40.009Z,28.47
2023-04-11T00:08:09.285Z,30.55
2023-04-11T00:10:38.648Z,33.95
2023-04-11T00:13:08.014Z,22.77
2023-04-11T00:15:39.298Z,37.15
2023-04-11T00:18:09.368Z,36.35
2023-04-11T00:20:38.675Z,35.75
2023-04-11T00:23:08.869Z,21.87
2023-04-11T00:25:38.296Z,34.55
2023-04-11T00:28:07.844Z,22.93
2023-04-11T00:30:37.110Z,26.42
2023-04-11T00:33:06.553Z,31.45
2023-04-11T00:35:37.515Z,31.10
2023-04-11T00:38:07.028Z,26.48
2023-04-11T00:40:36.538Z,31.10
2023-04-11T00:43:06.034Z,37.50
2023-04-11T00:45:35.548Z,38.95
2023-04-11T00:48:05.267Z,34.43
2023-04-11T00:50:35.022Z,37.03
2023-04-11T00:53:04.661Z,30.90
2023-04-11T00:55:34.083Z,31.48
2023-04-11T00:58:03.886Z,33.85
2023-04-11T01:00:36.211Z,28.25
2023-04-11T01:03:06.897Z,33.33
2023-04-11T01:05:36.741Z,34.73
2023-04-11T01:08:06.250Z,37.15
2023-04-11T01:10:35.960Z,36.20
2023-04-11T01:13:05.271Z,38.85
2023-04-11T01:15:34.929Z,33.98
2023-04-11T01:18:05.759Z,30.68
2023-04-11T01:20:35.469Z,28.70
2023-04-11T01:23:04.894Z,37.38
2023-04-11T01:25:34.229Z,29.42
2023-04-11T01:28:04.842Z,30.52
2023-04-11T01:30:34.244Z,27.82
2023-04-11T01:33:03.753Z,31.55
2023-04-11T01:35:33.363Z,31.12
2023-04-11T01:38:03.501Z,31.07
2023-04-11T01:40:33.216Z,34.50
2023-04-11T01:43:03.364Z,36.50
2023-04-11T01:45:33.667Z,22.85
2023-04-11T01:48:08.822Z,31.50
2023-04-11T01:50:38.206Z,23.70
2023-04-11T01:53:07.833Z,30.10
2023-04-11T01:55:37.204Z,32.67
2023-04-11T01:58:06.600Z,29.67
2023-04-11T02:00:37.092Z,27.32
2023-04-11T02:03:06.690Z,21.80
2023-04-11T02:05:39.312Z,26.02
2023-04-11T02:08:08.564Z,28.75
2023-04-11T02:10:38.248Z,25.55
2023-04-11T02:13:07.535Z,20.08
2023-04-11T02:15:37.294Z,26.42
2023-04-11T02:18:08.750Z,22.10
2023-04-11T02:20:40.105Z,24.67
2023-04-11T02:23:09.397Z,21.07
2023-04-11T02:25:39.338Z,16.77
2023-04-11T02:28:08.932Z,20.37
2023-04-11T02:30:38.235Z,12.80
2023-04-11T02:33:07.791Z,13.55
2023-04-11T02:35:37.300Z,10.28
2023-04-11T02:38:06.668Z,10.48
2023-04-11T02:40:35.948Z,14.95
2023-04-11T02:43:05.287Z,14.80
2023-04-11T02:45:34.728Z,7.80
2023-04-11T02:48:04.384Z,14.33
2023-04-11T02:50:36.121Z,15.28
2023-04-11T02:53:08.561Z,15.25
2023-04-11T02:55:41.639Z,12.07
2023-04-11T02:58:11.130Z,11.60
2023-04-11T03:00:41.775Z,9.88
2023-04-11T03:03:12.602Z,10.95
2023-04-11T03:08:12.874Z,9.23
2023-04-11T03:10:43.817Z,9.15
2023-04-11T03:13:13.562Z,11.10
2023-04-11T03:15:43.319Z,12.60
2023-04-11T03:18:13.181Z,11.00
2023-04-11T03:20:44.443Z,13.00
2023-04-11T03:23:14.910Z,10.85
2023-04-11T03:25:48.060Z,12.43
2023-04-11T03:28:17.825Z,14.90
2023-04-11T03:30:48.865Z,9.83
2023-04-11T03:33:19.894Z,12.63
2023-04-11T03:35:49.191Z,16.87
2023-04-11T03:38:18.512Z,10.78
2023-04-11T03:40:48.234Z,14.33
2023-04-11T03:43:19.459Z,12.58
2023-04-11T03:45:48.896Z,11.00
2023-04-11T03:48:26.651Z,10.95
2023-04-11T03:50:58.334Z,11.40
2023-04-11T03:53:29.327Z,14.73
2023-04-11T03:56:01.574Z,13.32
2023-04-11T03:58:33.059Z,18.55
2023-04-11T04:01:03.018Z,14.63
2023-04-11T04:03:33.217Z,9.18
2023-04-11T04:06:03.257Z,14.83
2023-04-11T04:08:32.606Z,11.65
2023-04-11T04:11:01.985Z,17.82
2023-04-11T04:13:32.731Z,13.15
2023-04-11T04:16:04.337Z,8.53
2023-04-11T04:18:34.350Z,11.85
2023-04-11T04:21:03.822Z,13.50
2023-04-11T04:23:33.738Z,9.68
2023-04-11T04:26:05.117Z,8.38
2023-04-11T04:28:35.250Z,16.52
2023-04-11T04:31:05.605Z,13.80
2023-04-11T04:33:36.879Z,8.60
2023-04-11T04:36:10.262Z,15.78
2023-04-11T04:38:41.363Z,12.90
2023-04-11T04:41:13.476Z,10.08
2023-04-11T04:43:43.809Z,10.65
2023-04-11T04:46:18.252Z,11.08
2023-04-11T04:48:49.612Z,7.72
2023-04-11T04:51:19.330Z,9.45
2023-04-11T04:53:48.576Z,11.73
2023-04-11T04:56:17.929Z,11.45
2023-04-11T04:58:48.734Z,12.10
2023-04-11T05:01:20.591Z,13.45
2023-04-11T05:03:52.942Z,12.10
2023-04-11T05:06:24.326Z,9.75
2023-04-11T05:08:53.612Z,13.30
2023-04-11T05:11:23.433Z,15.58
2023-04-11T05:13:54.093Z,10.60
2023-04-11T05:16:23.709Z,11.70
2023-04-11T05:18:53.075Z,9.85
2023-04-11T05:21:22.754Z,7.97
2023-04-11T05:23:54.001Z,14.15
2023-04-11T05:26:25.679Z,13.18
2023-04-11T05:28:55.333Z,16.75
2023-04-11T05:31:29.059Z,12.00
2023-04-11T05:33:58.967Z,12.37
2023-04-11T05:36:29.396Z,14.53
2023-04-11T05:38:58.776Z,15.83
2023-04-11T05:41:30.047Z,14.23
2023-04-11T05:43:59.315Z,18.12
2023-04-11T05:46:29.672Z,16.17
2023-04-11T05:49:00.957Z,18.48
2023-04-11T05:51:30.200Z,14.10
2023-04-11T05:53:59.487Z,16.50
2023-04-11T05:56:29.073Z,11.93
2023-04-11T05:58:58.335Z,17.23
2023-04-11T06:01:27.613Z,19.30
2023-04-11T06:03:57.897Z,13.18
2023-04-11T06:06:27.718Z,14.07
2023-04-11T06:08:57.134Z,13.60
2023-04-11T06:11:28.064Z,11.28
2023-04-11T06:13:57.510Z,13.15
2023-04-11T06:16:27.200Z,15.15
2023-04-11T06:18:56.521Z,9.05
2023-04-11T06:21:26.269Z,13.98
2023-04-11T06:23:55.700Z,10.50
2023-04-11T06:26:28.329Z,13.72
2023-04-11T06:28:57.854Z,13.72
2023-04-11T06:31:27.257Z,13.83
2023-04-11T06:33:57.163Z,15.55
2023-04-11T06:36:27.537Z,11.10
2023-04-11T06:38:57.536Z,10.70
2023-04-11T06:41:26.823Z,16.93
2023-04-11T06:43:56.841Z,14.63
2023-04-11T06:46:29.176Z,12.80
2023-04-11T06:48:58.499Z,15.35
2023-04-11T06:51:27.846Z,16.50
2023-04-11T06:53:57.613Z,13.80
2023-04-11T06:56:27.055Z,15.10
2023-04-11T06:58:56.342Z,15.78
2023-04-11T07:01:30.349Z,12.28
2023-04-11T07:04:00.369Z,13.25
2023-04-11T07:06:31.914Z,12.00
2023-04-11T07:09:01.466Z,15.15
2023-04-11T07:11:31.089Z,12.18
2023-04-11T07:14:02.144Z,16.37
2023-04-11T07:16:31.429Z,15.58
2023-04-11T07:19:01.112Z,16.93
2023-04-11T07:21:32.225Z,17.65
2023-04-11T07:24:01.516Z,16.17
2023-04-11T07:26:32.592Z,13.40
2023-04-11T07:29:02.256Z,14.33
2023-04-11T07:31:31.677Z,12.88
2023-04-11T07:34:01.288Z,10.88
2023-04-11T07:36:31.551Z,10.25
2023-04-11T07:39:01.328Z,7.12
2023-04-11T07:41:30.614Z,9.95
2023-04-11T07:43:59.848Z,14.38
2023-04-11T07:46:29.103Z,13.68
2023-04-11T07:48:58.454Z,11.18
2023-04-11T07:51:28.195Z,13.68
2023-04-11T07:53:57.766Z,8.70
2023-04-11T07:56:27.354Z,11.55
2023-04-11T07:58:58.432Z,10.13
2023-04-11T08:01:27.863Z,12.73
2023-04-11T08:03:58.290Z,12.70
2023-04-11T08:06:29.192Z,10.53
2023-04-11T08:08:58.752Z,8.28
2023-04-11T08:11:28.436Z,17.45
2023-04-11T08:13:57.964Z,9.63
2023-04-11T08:16:27.535Z,11.33
2023-04-11T08:18:57.315Z,14.68
2023-04-11T08:21:27.036Z,11.78
2023-04-11T08:23:56.471Z,13.22
2023-04-11T08:26:26.128Z,16.50
2023-04-11T08:28:55.577Z,8.10
2023-04-11T08:31:25.005Z,14.10
2023-04-11T08:33:54.640Z,14.13
2023-04-11T08:36:24.547Z,11.15
2023-04-11T08:38:55.312Z,10.50
2023-04-11T08:41:24.545Z,11.12
2023-04-11T08:43:54.644Z,9.98
2023-04-11T08:46:24.488Z,9.78
2023-04-11T08:48:53.780Z,7.12
2023-04-11T08:51:29.950Z,8.38
2023-04-11T08:54:01.926Z,12.23
2023-04-11T08:56:31.468Z,7.30
2023-04-11T08:59:01.276Z,11.65
2023-04-11T09:01:35.053Z,9.25
2023-04-11T09:04:07.522Z,8.30
2023-04-11T09:06:38.819Z,14.23
2023-04-11T09:09:09.788Z,7.83
2023-04-11T09:11:55.433Z,6.67
2023-04-11T09:14:27.851Z,9.33
2023-04-11T09:16:59.638Z,16.50
2023-04-11T09:19:31.545Z,11.63
2023-04-11T09:22:04.206Z,7.70
2023-04-11T09:24:35.757Z,12.05
2023-04-11T09:27:15.635Z,9.80
2023-04-11T09:29:47.031Z,6.83
2023-04-11T09:32:33.887Z,6.83
2023-04-11T09:35:19.653Z,7.60
2023-04-11T09:37:56.737Z,10.93
2023-04-11T09:40:28.640Z,8.53
2023-04-11T09:43:00.519Z,5.60
2023-04-11T09:45:38.180Z,6.08
2023-04-11T09:48:02.604Z,6.33
2023-04-11T09:50:34.308Z,4.45
2023-04-11T09:53:04.490Z,7.23
2023-04-11T09:55:34.487Z,6.30
2023-04-11T09:58:04.833Z,7.95
2023-04-11T10:00:34.113Z,8.15
2023-04-11T10:03:03.862Z,6.62
2023-04-11T10:05:33.419Z,8.60
2023-04-11T10:08:30.978Z,6.70
2023-04-11T10:11:02.147Z,3.72
2023-04-11T10:13:37.526Z,5.50
2023-04-11T10:16:10.131Z,6.83
2023-04-11T10:21:13.162Z,9.33
2023-04-11T10:27:01.761Z,9.20
2023-04-11T10:29:34.695Z,14.93
2023-04-11T10:32:16.121Z,9.10
2023-04-11T10:34:54.542Z,9.15
2023-04-11T10:37:33.790Z,14.80
2023-04-11T10:40:08.945Z,8.65
2023-04-11T10:42:46.723Z,16.02
2023-04-11T10:45:29.624Z,7.20
2023-04-11T10:48:05.534Z,9.23
2023-04-11T10:50:40.995Z,10.30
2023-04-11T10:53:14.691Z,6.75
2023-04-11T10:55:48.932Z,5.05
2023-04-11T10:58:22.540Z,15.83
2023-04-11T11:01:13.303Z,9.43
2023-04-11T11:03:41.990Z,7.30
2023-04-11T11:06:11.720Z,7.50
2023-04-11T11:08:42.048Z,8.20
2023-04-11T11:11:12.288Z,8.03
2023-04-11T11:13:51.754Z,9.08
2023-04-11T11:16:26.314Z,5.75
2023-04-11T11:18:58.840Z,8.55
2023-04-11T11:24:00.982Z,8.50
2023-04-11T11:26:40.939Z,8.90
2023-04-11T11:29:11.378Z,7.08
2023-04-11T11:31:42.141Z,7.22
2023-04-11T11:36:46.544Z,8.08
2023-04-11T11:39:15.946Z,7.17
2023-04-11T11:41:45.789Z,6.70
2023-04-11T11:44:29.416Z,7.80
2023-04-11T11:47:18.566Z,6.95
2023-04-11T11:49:50.706Z,5.42
2023-04-11T11:52:37.517Z,9.48
2023-04-11T11:55:22.749Z,8.98
2023-04-11T11:57:52.296Z,10.10
2023-04-11T12:00:26.182Z,6.65
2023-04-11T12:02:57.116Z,8.30
2023-04-11T12:05:28.934Z,5.53
2023-04-11T12:08:00.103Z,16.55
2023-04-11T12:10:41.054Z,10.65
2023-04-11T12:13:15.797Z,10.18
2023-04-11T12:15:48.019Z,6.00
2023-04-11T12:18:17.632Z,7.40
2023-04-11T12:20:46.920Z,4.65
2023-04-11T12:23:16.642Z,6.62
2023-04-11T12:25:46.678Z,6.67
2023-04-11T12:28:16.497Z,5.70
2023-04-11T12:30:46.050Z,6.17
2023-04-11T12:33:16.626Z,5.50
2023-04-11T12:35:45.951Z,7.17
2023-04-11T12:38:17.749Z,6.70
2023-04-11T12:40:47.069Z,4.37
2023-04-11T12:43:16.900Z,7.00
2023-04-11T12:45:46.316Z,7.12
2023-04-11T12:48:15.779Z,4.25
2023-04-11T12:50:45.111Z,9.78
2023-04-11T12:53:14.803Z,4.62
2023-04-11T12:55:44.109Z,7.28
2023-04-11T12:58:13.583Z,5.65
2023-04-11T13:00:42.867Z,5.85
2023-04-11T13:03:12.382Z,8.50
2023-04-11T13:05:41.838Z,6.55
2023-04-11T13:08:12.075Z,7.55
2023-04-11T13:10:41.429Z,6.97
2023-04-11T13:13:18.042Z,6.53
2023-04-11T13:15:41.838Z,9.65
2023-04-11T13:18:11.319Z,6.05
2023-04-11T13:20:40.990Z,6.67
2023-04-11T13:23:11.496Z,5.62
2023-04-11T13:25:41.582Z,5.28
2023-04-11T13:28:11.101Z,5.97
2023-04-11T13:30:41.192Z,6.92
2023-04-11T13:33:11.089Z,5.45
2023-04-11T13:35:40.904Z,6.00
2023-04-11T13:38:12.375Z,8.23
2023-04-11T13:40:42.756Z,8.13
2023-04-11T13:43:12.110Z,1.95
2023-04-11T13:45:41.550Z,7.37
2023-04-11T13:48:11.226Z,7.97
2023-04-11T13:50:40.847Z,5.62
2023-04-11T13:53:11.394Z,5.33
2023-04-11T13:55:40.870Z,7.17
2023-04-11T13:58:10.227Z,6.65
2023-04-11T14:00:39.508Z,5.72
2023-04-11T14:03:09.040Z,8.28
2023-04-11T14:05:39.082Z,5.85
2023-04-11T14:08:09.082Z,5.78
2023-04-11T14:10:38.729Z,5.72
2023-04-11T14:13:11.301Z,4.72
2023-04-11T14:15:39.167Z,4.55
2023-04-11T14:18:08.611Z,4.87
2023-04-11T14:20:38.597Z,3.62
2023-04-11T14:23:10.083Z,4.05
2023-04-11T14:25:39.642Z,5.37
2023-04-11T14:28:09.183Z,5.20
2023-04-11T14:30:38.535Z,4.92
2023-04-11T14:33:08.095Z,5.40
2023-04-11T14:35:38.161Z,7.60
2023-04-11T14:38:07.806Z,4.95
2023-04-11T14:40:37.159Z,5.50
2023-04-11T14:43:06.610Z,4.58
2023-04-11T14:45:36.476Z,11.53
2023-04-11T14:48:06.902Z,6.97
2023-04-11T14:50:36.405Z,5.37
2023-04-11T14:53:06.029Z,4.37
2023-04-11T14:55:35.659Z,6.08
2023-04-11T14:58:05.010Z,7.42
2023-04-11T15:00:34.573Z,7.25
2023-04-11T15:03:04.282Z,5.00
2023-04-11T15:05:33.883Z,8.55
2023-04-11T15:08:03.664Z,8.03
2023-04-11T15:10:32.930Z,8.20
2023-04-11T15:13:03.350Z,6.37
2023-04-11T15:15:32.753Z,8.53
2023-04-11T15:18:22.231Z,7.95
2023-04-11T15:20:52.673Z,6.78
2023-04-11T15:23:22.596Z,5.08
2023-04-11T15:25:59.714Z,5.80
2023-04-11T15:28:34.713Z,8.15
2023-04-11T15:31:05.813Z,7.85
2023-04-11T15:33:35.751Z,5.87
2023-04-11T15:36:06.501Z,6.00
2023-04-11T15:38:37.038Z,8.58
2023-04-11T15:41:07.536Z,8.45
2023-04-11T15:43:37.092Z,5.53
2023-04-11T15:46:08.444Z,9.20
2023-04-11T15:48:39.687Z,9.38
2023-04-11T15:51:14.117Z,8.65
2023-04-11T15:53:43.532Z,8.85
2023-04-11T15:56:13.549Z,6.87
2023-04-11T15:58:43.287Z,7.33
2023-04-11T16:01:23.200Z,7.60
2023-04-11T16:03:55.373Z,9.70
2023-04-11T16:06:24.921Z,11.68
2023-04-11T16:08:54.953Z,11.03
2023-04-11T16:11:24.257Z,9.15
2023-04-11T16:13:53.829Z,10.65
2023-04-11T16:16:23.137Z,6.55
2023-04-11T16:18:52.620Z,11.38
2023-04-11T16:21:23.577Z,9.35
2023-04-11T16:23:56.705Z,8.70
2023-04-11T16:26:27.101Z,7.12
2023-04-11T16:28:56.369Z,11.78
2023-04-11T16:31:25.772Z,8.23
2023-04-11T16:33:56.163Z,7.28
2023-04-11T16:36:27.330Z,10.32
2023-04-11T16:38:56.693Z,8.55
2023-04-11T16:41:26.175Z,5.80
2023-04-11T16:43:56.237Z,7.60
2023-04-11T16:46:25.733Z,11.68
2023-04-11T16:48:55.968Z,8.68
2023-04-11T16:51:26.121Z,8.48
2023-04-11T16:53:56.521Z,9.25
2023-04-11T16:56:27.770Z,8.05
2023-04-11T16:58:57.567Z,8.53
2023-04-11T17:01:27.054Z,9.48
2023-04-11T17:03:56.900Z,7.10
2023-04-11T17:06:27.216Z,7.45
2023-04-11T17:08:57.849Z,10.40
2023-04-11T17:11:27.310Z,5.67
2023-04-11T17:13:57.106Z,10.10
2023-04-11T17:16:26.951Z,7.62
2023-04-11T17:18:56.608Z,5.25
2023-04-11T17:21:26.455Z,8.60
2023-04-11T17:23:56.770Z,8.93
2023-04-11T17:26:26.152Z,8.00
2023-04-11T17:28:55.420Z,3.95
2023-04-11T17:31:26.379Z,7.33
2023-04-11T17:33:56.354Z,6.45
2023-04-11T17:36:26.190Z,9.30
2023-04-11T17:38:56.191Z,7.08
2023-04-11T17:41:25.513Z,7.20
2023-04-11T17:43:57.222Z,6.95
2023-04-11T17:46:27.152Z,10.05
2023-04-11T17:48:56.611Z,7.60
2023-04-11T17:51:28.271Z,7.65
2023-04-11T17:53:58.401Z,6.37
2023-04-11T17:56:28.276Z,7.60
2023-04-11T17:58:57.533Z,7.90
2023-04-11T18:01:28.662Z,9.28
2023-04-11T18:06:59.275Z,13.78
2023-04-11T18:09:30.781Z,10.85
2023-04-11T18:12:01.068Z,14.10
2023-04-11T18:14:34.010Z,9.63
2023-04-11T18:17:03.922Z,9.88
2023-04-11T18:19:33.556Z,9.93
2023-04-11T18:22:03.090Z,7.90
2023-04-11T18:24:32.637Z,7.33
2023-04-11T18:27:02.011Z,8.85
2023-04-11T18:29:31.546Z,5.72
2023-04-11T18:32:01.147Z,7.78
2023-04-11T18:34:30.456Z,9.65
2023-04-11T18:36:59.838Z,6.47
2023-04-11T18:39:29.448Z,9.25
2023-04-11T18:41:58.868Z,6.25
2023-04-11T18:44:28.433Z,5.90
2023-04-11T18:47:00.942Z,8.03
2023-04-11T18:49:30.160Z,6.75
2023-04-11T18:52:00.109Z,10.35
2023-04-11T18:54:29.432Z,6.80
2023-04-11T18:56:59.774Z,7.95
2023-04-11T18:59:29.823Z,5.12
2023-04-11T19:01:59.939Z,11.18
2023-04-11T19:04:30.245Z,7.97
2023-04-11T19:07:00.154Z,6.87
2023-04-11T19:09:30.273Z,7.58
2023-04-11T19:12:00.221Z,8.80
2023-04-11T19:14:29.485Z,5.87
2023-04-11T19:16:59.230Z,9.65
2023-04-11T19:19:29.340Z,8.08
2023-04-11T19:21:58.639Z,9.43
2023-04-11T19:24:28.001Z,8.25
2023-04-11T19:26:57.490Z,7.42
2023-04-11T19:29:27.137Z,8.45
2023-04-11T19:31:56.816Z,7.67
2023-04-11T19:34:26.545Z,7.92
2023-04-11T19:36:56.224Z,12.45
2023-04-11T19:39:25.730Z,8.38
2023-04-11T19:41:55.005Z,9.95
2023-04-11T19:44:24.491Z,8.13
2023-04-11T19:46:54.146Z,5.75
2023-04-11T19:49:23.517Z,9.90
2023-04-11T19:51:52.912Z,12.30
2023-04-11T19:54:23.301Z,7.95
2023-04-11T19:56:55.795Z,12.23
2023-04-11T19:59:25.833Z,9.95
2023-04-11T20:01:55.376Z,11.08
2023-04-11T20:04:24.972Z,7.87
2023-04-11T20:06:55.955Z,7.30
2023-04-11T20:09:26.268Z,6.97
2023-04-11T20:11:56.846Z,8.80
2023-04-11T20:14:26.380Z,7.35
2023-04-11T20:16:55.804Z,9.50
2023-04-11T20:19:26.941Z,10.55
2023-04-11T20:21:56.495Z,10.75
2023-04-11T20:24:26.321Z,9.63
2023-04-11T20:26:57.251Z,7.58
2023-04-11T20:29:29.710Z,8.65
2023-04-11T20:32:00.169Z,7.62
2023-04-11T20:34:29.508Z,9.85
2023-04-11T20:37:00.796Z,8.38
2023-04-11T20:39:32.229Z,11.40
2023-04-11T20:42:01.483Z,9.65
2023-04-11T20:44:30.926Z,7.90
2023-04-11T20:47:00.229Z,8.45
2023-04-11T20:49:31.518Z,8.55
2023-04-11T20:52:00.795Z,8.15
2023-04-11T20:54:30.057Z,11.38
2023-04-11T20:56:59.333Z,6.65
2023-04-11T20:59:29.889Z,7.35
2023-04-11T21:01:59.191Z,8.30
2023-04-11T21:04:28.819Z,8.48
2023-04-11T21:06:58.958Z,7.30
2023-04-11T21:09:28.334Z,8.48
2023-04-11T21:11:58.090Z,9.43
2023-04-11T21:14:27.686Z,10.18
2023-04-11T21:16:57.025Z,10.05
2023-04-11T21:19:26.605Z,8.48
2023-04-11T21:21:57.285Z,10.00
2023-04-11T21:24:27.906Z,7.80
2023-04-11T21:26:57.263Z,7.80
2023-04-11T21:29:27.118Z,10.78
2023-04-11T21:31:56.773Z,9.98
2023-04-11T21:34:25.990Z,9.13
2023-04-11T21:36:55.305Z,13.20
2023-04-11T21:39:24.667Z,9.13
2023-04-11T21:41:54.002Z,14.00
2023-04-11T21:44:23.328Z,8.33
2023-04-11T21:46:53.040Z,9.38
2023-04-11T21:49:22.403Z,12.50
2023-04-11T21:51:51.772Z,10.80
2023-04-11T21:54:21.229Z,10.72
2023-04-11T21:56:50.953Z,10.32
2023-04-11T21:59:21.232Z,8.35
2023-04-11T22:01:50.841Z,11.20
2023-04-11T22:04:22.131Z,13.55
2023-04-11T22:06:53.495Z,11.60
2023-04-11T22:09:23.068Z,8.68
2023-04-11T22:11:53.274Z,9.53
2023-04-11T22:14:24.422Z,9.85
2023-04-11T22:16:55.349Z,9.93
2023-04-11T22:19:25.298Z,10.45
2023-04-11T22:21:56.205Z,9.33
2023-04-11T22:24:27.219Z,9.55
2023-04-11T22:26:58.351Z,8.78
2023-04-11T22:29:29.540Z,9.23
2023-04-11T22:32:00.578Z,9.70
2023-04-11T22:34:31.047Z,9.53
2023-04-11T22:37:00.331Z,14.55
2023-04-11T22:39:30.120Z,10.00
2023-04-11T22:41:59.681Z,9.10
2023-04-11T22:44:28.992Z,11.93
2023-04-11T22:47:06.095Z,11.78
2023-04-11T22:49:38.091Z,10.13
2023-04-11T22:52:08.505Z,12.10
2023-04-11T22:54:38.594Z,11.40
2023-04-11T22:57:07.917Z,9.93
2023-04-11T22:59:38.139Z,10.80
2023-04-11T23:02:07.406Z,8.10
2023-04-11T23:04:37.007Z,11.65
2023-04-11T23:07:06.522Z,10.23
2023-04-11T23:09:36.588Z,12.00
2023-04-11T23:12:06.650Z,13.50
2023-04-11T23:14:35.980Z,9.25
2023-04-11T23:17:05.334Z,11.40
2023-04-11T23:19:35.379Z,8.00
2023-04-11T23:22:04.986Z,14.07
2023-04-11T23:24:34.429Z,13.93
2023-04-11T23:27:03.796Z,10.82
2023-04-11T23:29:33.434Z,12.20
2023-04-11T23:32:02.683Z,8.93
2023-04-11T23:34:32.302Z,14.93
2023-04-11T23:37:01.532Z,8.93
2023-04-11T23:39:31.204Z,10.45
2023-04-11T23:42:00.980Z,7.05
2023-04-11T23:44:30.689Z,11.03
2023-04-11T23:47:03.442Z,9.78
2023-04-11T23:49:32.730Z,7.30
2023-04-11T23:52:02.930Z,6.60
2023-04-11T23:54:32.414Z,9.55
2023-04-11T23:57:02.279Z,13.65
2023-04-11T23:59:32.699Z,8.23
